sensor_id;sensor_type;location;lat;lon;timestamp;P1;durP1;ratioP1;P2;durP2;ratioP2
46751;SDS011;32497;48.936;9.270;2022-08-26T00:01:09;3.38;;;1.65;;
46751;SDS011;32497;48.936;9.270;2022-08-26T00:06:10;4.20;;;2.05;;
46751;SDS011;32497;48.936;9.270;2022-08-26T00:11:13;4.22;;;2.47;;
46751;SDS011;32497;48.936;9.270;2022-08-26T00:16:14;3.65;;;1.95;;
46751;SDS011;32497;48.936;9.270;2022-08-26T00:21:15;2.75;;;1.83;;
46751;SDS011;32497;48.936;9.270;2022-08-26T00:26:17;3.67;;;2.03;;
46751;SDS011;32497;48.936;9.270;2022-08-26T00:31:18;2.13;;;1.63;;
46751;SDS011;32497;48.936;9.270;2022-08-26T00:36:19;3.20;;;1.80;;
46751;SDS011;32497;48.936;9.270;2022-08-26T00:41:22;5.03;;;2.22;;
46751;SDS011;32497;48.936;9.270;2022-08-26T00:46:24;3.30;;;1.80;;
46751;SDS011;32497;48.936;9.270;2022-08-26T00:51:26;2.80;;;1.55;;
46751;SDS011;32497;48.936;9.270;2022-08-26T00:56:30;2.05;;;1.60;;
46751;SDS011;32497;48.936;9.270;2022-08-26T01:01:34;3.97;;;1.85;;
46751;SDS011;32497;48.936;9.270;2022-08-26T01:06:36;3.72;;;1.95;;
46751;SDS011;32497;48.936;9.270;2022-08-26T01:11:39;4.85;;;2.42;;
46751;SDS011;32497;48.936;9.270;2022-08-26T01:16:41;3.92;;;1.95;;
46751;SDS011;32497;48.936;9.270;2022-08-26T01:21:42;3.63;;;1.67;;
46751;SDS011;32497;48.936;9.270;2022-08-26T01:26:49;3.08;;;2.03;;
46751;SDS011;32497;48.936;9.270;2022-08-26T01:31:51;3.65;;;1.90;;
46751;SDS011;32497;48.936;9.270;2022-08-26T01:36:56;3.65;;;1.70;;
46751;SDS011;32497;48.936;9.270;2022-08-26T01:42:02;3.75;;;2.05;;
46751;SDS011;32497;48.936;9.270;2022-08-26T01:47:07;2.65;;;1.88;;
46751;SDS011;32497;48.936;9.270;2022-08-26T01:52:09;2.78;;;1.95;;
46751;SDS011;32497;48.936;9.270;2022-08-26T01:57:14;2.95;;;1.80;;
46751;SDS011;32497;48.936;9.270;2022-08-26T02:02:17;3.50;;;2.00;;
46751;SDS011;32497;48.936;9.270;2022-08-26T02:07:19;2.88;;;1.63;;
46751;SDS011;32497;48.936;9.270;2022-08-26T02:12:23;5.18;;;1.80;;
46751;SDS011;32497;48.936;9.270;2022-08-26T02:17:28;3.42;;;1.92;;
46751;SDS011;32497;48.936;9.270;2022-08-26T02:22:32;3.15;;;2.08;;
46751;SDS011;32497;48.936;9.270;2022-08-26T02:27:35;3.10;;;1.65;;
46751;SDS011;32497;48.936;9.270;2022-08-26T02:32:36;3.55;;;2.03;;
46751;SDS011;32497;48.936;9.270;2022-08-26T02:37:37;5.25;;;2.25;;
46751;SDS011;32497;48.936;9.270;2022-08-26T02:42:39;5.88;;;2.30;;
46751;SDS011;32497;48.936;9.270;2022-08-26T02:47:41;3.38;;;2.00;;
46751;SDS011;32497;48.936;9.270;2022-08-26T02:52:42;4.05;;;2.83;;
46751;SDS011;32497;48.936;9.270;2022-08-26T02:57:44;3.42;;;2.22;;
46751;SDS011;32497;48.936;9.270;2022-08-26T03:02:45;3.45;;;2.03;;
46751;SDS011;32497;48.936;9.270;2022-08-26T03:07:46;5.00;;;1.88;;
46751;SDS011;32497;48.936;9.270;2022-08-26T03:12:49;3.20;;;2.22;;
46751;SDS011;32497;48.936;9.270;2022-08-26T03:17:50;6.00;;;2.30;;
46751;SDS011;32497;48.936;9.270;2022-08-26T03:22:51;3.00;;;2.05;;
46751;SDS011;32497;48.936;9.270;2022-08-26T03:27:53;4.03;;;2.50;;
46751;SDS011;32497;48.936;9.270;2022-08-26T03:32:54;3.78;;;2.25;;
46751;SDS011;32497;48.936;9.270;2022-08-26T03:37:55;5.22;;;2.28;;
46751;SDS011;32497;48.936;9.270;2022-08-26T03:42:58;3.65;;;1.70;;
46751;SDS011;32497;48.936;9.270;2022-08-26T03:47:59;4.05;;;2.17;;
46751;SDS011;32497;48.936;9.270;2022-08-26T03:53:00;7.95;;;2.28;;
46751;SDS011;32497;48.936;9.270;2022-08-26T03:58:03;5.75;;;2.30;;
46751;SDS011;32497;48.936;9.270;2022-08-26T04:03:04;5.30;;;2.30;;
46751;SDS011;32497;48.936;9.270;2022-08-26T04:08:05;5.47;;;2.60;;
46751;SDS011;32497;48.936;9.270;2022-08-26T04:13:07;5.80;;;2.60;;
46751;SDS011;32497;48.936;9.270;2022-08-26T04:18:08;5.18;;;2.42;;
46751;SDS011;32497;48.936;9.270;2022-08-26T04:23:09;5.18;;;2.40;;
46751;SDS011;32497;48.936;9.270;2022-08-26T04:28:12;5.47;;;2.40;;
46751;SDS011;32497;48.936;9.270;2022-08-26T04:33:13;5.90;;;2.88;;
46751;SDS011;32497;48.936;9.270;2022-08-26T04:38:14;3.92;;;2.40;;
46751;SDS011;32497;48.936;9.270;2022-08-26T04:43:17;5.07;;;2.63;;
46751;SDS011;32497;48.936;9.270;2022-08-26T04:48:18;4.07;;;1.95;;
46751;SDS011;32497;48.936;9.270;2022-08-26T04:53:19;4.35;;;2.38;;
46751;SDS011;32497;48.936;9.270;2022-08-26T04:58:22;4.63;;;2.72;;
46751;SDS011;32497;48.936;9.270;2022-08-26T05:03:24;6.47;;;3.08;;
46751;SDS011;32497;48.936;9.270;2022-08-26T05:08:26;4.35;;;2.88;;
46751;SDS011;32497;48.936;9.270;2022-08-26T05:13:28;4.15;;;2.63;;
46751;SDS011;32497;48.936;9.270;2022-08-26T05:18:29;4.63;;;2.58;;
46751;SDS011;32497;48.936;9.270;2022-08-26T05:23:33;6.40;;;2.58;;
46751;SDS011;32497;48.936;9.270;2022-08-26T05:28:36;4.97;;;2.80;;
46751;SDS011;32497;48.936;9.270;2022-08-26T05:33:37;4.15;;;2.83;;
46751;SDS011;32497;48.936;9.270;2022-08-26T05:38:38;4.15;;;2.33;;
46751;SDS011;32497;48.936;9.270;2022-08-26T05:43:40;4.25;;;2.60;;
46751;SDS011;32497;48.936;9.270;2022-08-26T05:48:41;5.40;;;3.10;;
46751;SDS011;32497;48.936;9.270;2022-08-26T05:53:42;4.70;;;2.80;;
46751;SDS011;32497;48.936;9.270;2022-08-26T05:58:45;3.90;;;2.40;;
46751;SDS011;32497;48.936;9.270;2022-08-26T06:03:47;4.25;;;2.50;;
46751;SDS011;32497;48.936;9.270;2022-08-26T06:08:49;4.65;;;2.40;;
46751;SDS011;32497;48.936;9.270;2022-08-26T06:13:52;6.07;;;2.83;;
46751;SDS011;32497;48.936;9.270;2022-08-26T06:18:55;3.80;;;2.63;;
46751;SDS011;32497;48.936;9.270;2022-08-26T06:23:57;7.60;;;2.72;;
46751;SDS011;32497;48.936;9.270;2022-08-26T06:29:00;3.65;;;2.25;;
46751;SDS011;32497;48.936;9.270;2022-08-26T06:34:02;9.35;;;2.67;;
46751;SDS011;32497;48.936;9.270;2022-08-26T06:39:05;4.88;;;2.78;;
46751;SDS011;32497;48.936;9.270;2022-08-26T06:44:08;5.70;;;2.28;;
46751;SDS011;32497;48.936;9.270;2022-08-26T06:49:10;5.35;;;2.90;;
46751;SDS011;32497;48.936;9.270;2022-08-26T06:54:11;3.92;;;2.85;;
46751;SDS011;32497;48.936;9.270;2022-08-26T06:59:13;5.65;;;2.80;;
46751;SDS011;32497;48.936;9.270;2022-08-26T07:04:15;4.35;;;2.55;;
46751;SDS011;32497;48.936;9.270;2022-08-26T07:09:16;5.97;;;2.97;;
46751;SDS011;32497;48.936;9.270;2022-08-26T07:14:18;4.82;;;3.17;;
46751;SDS011;32497;48.936;9.270;2022-08-26T07:19:20;4.47;;;2.50;;
46751;SDS011;32497;48.936;9.270;2022-08-26T07:24:22;4.47;;;2.72;;
46751;SDS011;32497;48.936;9.270;2022-08-26T07:29:24;5.20;;;2.53;;
46751;SDS011;32497;48.936;9.270;2022-08-26T07:34:26;5.30;;;3.13;;
46751;SDS011;32497;48.936;9.270;2022-08-26T07:39:27;4.35;;;2.35;;
46751;SDS011;32497;48.936;9.270;2022-08-26T07:44:30;3.72;;;2.40;;
46751;SDS011;32497;48.936;9.270;2022-08-26T07:49:31;5.18;;;2.55;;
46751;SDS011;32497;48.936;9.270;2022-08-26T07:54:33;6.05;;;2.25;;
46751;SDS011;32497;48.936;9.270;2022-08-26T07:59:35;3.70;;;2.20;;
46751;SDS011;32497;48.936;9.270;2022-08-26T08:04:36;3.13;;;2.15;;
46751;SDS011;32497;48.936;9.270;2022-08-26T08:09:37;2.92;;;2.03;;
46751;SDS011;32497;48.936;9.270;2022-08-26T08:14:39;4.15;;;2.53;;
46751;SDS011;32497;48.936;9.270;2022-08-26T08:19:40;3.10;;;2.30;;
46751;SDS011;32497;48.936;9.270;2022-08-26T08:24:41;5.18;;;2.38;;
46751;SDS011;32497;48.936;9.270;2022-08-26T08:29:44;3.75;;;2.13;;
46751;SDS011;32497;48.936;9.270;2022-08-26T08:34:45;4.55;;;2.17;;
46751;SDS011;32497;48.936;9.270;2022-08-26T08:39:46;4.78;;;2.72;;
46751;SDS011;32497;48.936;9.270;2022-08-26T08:44:49;2.55;;;1.80;;
46751;SDS011;32497;48.936;9.270;2022-08-26T08:49:52;3.88;;;2.25;;
46751;SDS011;32497;48.936;9.270;2022-08-26T08:54:57;2.75;;;2.05;;
46751;SDS011;32497;48.936;9.270;2022-08-26T09:00:03;4.43;;;2.40;;
46751;SDS011;32497;48.936;9.270;2022-08-26T09:05:09;2.97;;;1.90;;
46751;SDS011;32497;48.936;9.270;2022-08-26T09:10:23;2.42;;;1.83;;
46751;SDS011;32497;48.936;9.270;2022-08-26T09:15:33;2.42;;;1.90;;
46751;SDS011;32497;48.936;9.270;2022-08-26T09:20:42;3.38;;;2.53;;
46751;SDS011;32497;48.936;9.270;2022-08-26T09:25:49;2.40;;;1.80;;
46751;SDS011;32497;48.936;9.270;2022-08-26T09:31:08;3.03;;;2.00;;
46751;SDS011;32497;48.936;9.270;2022-08-26T09:36:14;2.30;;;1.65;;
46751;SDS011;32497;48.936;9.270;2022-08-26T09:41:19;3.55;;;2.10;;
46751;SDS011;32497;48.936;9.270;2022-08-26T09:46:24;4.30;;;2.40;;
46751;SDS011;32497;48.936;9.270;2022-08-26T09:51:29;5.47;;;2.05;;
46751;SDS011;32497;48.936;9.270;2022-08-26T09:56:32;3.38;;;2.08;;
46751;SDS011;32497;48.936;9.270;2022-08-26T10:01:37;3.03;;;2.28;;
46751;SDS011;32497;48.936;9.270;2022-08-26T10:06:42;3.70;;;2.60;;
46751;SDS011;32497;48.936;9.270;2022-08-26T10:11:55;3.55;;;2.70;;
46751;SDS011;32497;48.936;9.270;2022-08-26T10:17:01;4.60;;;3.35;;
46751;SDS011;32497;48.936;9.270;2022-08-26T10:22:06;3.83;;;2.58;;
46751;SDS011;32497;48.936;9.270;2022-08-26T10:27:15;4.07;;;2.90;;
46751;SDS011;32497;48.936;9.270;2022-08-26T10:32:30;3.25;;;2.42;;
46751;SDS011;32497;48.936;9.270;2022-08-26T10:37:34;3.83;;;2.30;;
46751;SDS011;32497;48.936;9.270;2022-08-26T10:42:39;2.50;;;1.90;;
46751;SDS011;32497;48.936;9.270;2022-08-26T10:47:44;4.88;;;2.35;;
46751;SDS011;32497;48.936;9.270;2022-08-26T10:52:51;4.90;;;1.67;;
46751;SDS011;32497;48.936;9.270;2022-08-26T10:58:04;2.05;;;1.50;;
46751;SDS011;32497;48.936;9.270;2022-08-26T11:03:25;3.28;;;1.88;;
46751;SDS011;32497;48.936;9.270;2022-08-26T11:08:44;2.35;;;1.50;;
46751;SDS011;32497;48.936;9.270;2022-08-26T11:13:58;3.28;;;2.10;;
46751;SDS011;32497;48.936;9.270;2022-08-26T11:19:04;4.40;;;1.92;;
46751;SDS011;32497;48.936;9.270;2022-08-26T11:24:06;6.97;;;2.40;;
46751;SDS011;32497;48.936;9.270;2022-08-26T11:29:08;5.68;;;2.35;;
46751;SDS011;32497;48.936;9.270;2022-08-26T11:34:12;2.55;;;1.60;;
46751;SDS011;32497;48.936;9.270;2022-08-26T11:39:15;3.08;;;1.77;;
46751;SDS011;32497;48.936;9.270;2022-08-26T11:44:20;2.65;;;1.80;;
46751;SDS011;32497;48.936;9.270;2022-08-26T11:49:25;3.17;;;1.73;;
46751;SDS011;32497;48.936;9.270;2022-08-26T11:54:27;3.08;;;1.63;;
46751;SDS011;32497;48.936;9.270;2022-08-26T11:59:29;4.35;;;1.98;;
46751;SDS011;32497;48.936;9.270;2022-08-26T12:04:36;4.22;;;2.28;;
46751;SDS011;32497;48.936;9.270;2022-08-26T12:09:49;3.42;;;1.80;;
46751;SDS011;32497;48.936;9.270;2022-08-26T12:15:06;4.65;;;2.03;;
46751;SDS011;32497;48.936;9.270;2022-08-26T12:20:18;3.05;;;1.70;;
46751;SDS011;32497;48.936;9.270;2022-08-26T12:25:28;2.85;;;1.85;;
46751;SDS011;32497;48.936;9.270;2022-08-26T12:30:29;3.47;;;1.95;;
46751;SDS011;32497;48.936;9.270;2022-08-26T12:35:31;4.07;;;1.80;;
46751;SDS011;32497;48.936;9.270;2022-08-26T12:40:34;4.18;;;2.50;;
46751;SDS011;32497;48.936;9.270;2022-08-26T12:45:38;7.10;;;2.30;;
46751;SDS011;32497;48.936;9.270;2022-08-26T12:50:45;4.45;;;1.85;;
46751;SDS011;32497;48.936;9.270;2022-08-26T12:55:48;3.58;;;1.63;;
46751;SDS011;32497;48.936;9.270;2022-08-26T13:00:52;3.17;;;1.80;;
46751;SDS011;32497;48.936;9.270;2022-08-26T13:06:08;3.53;;;2.05;;
46751;SDS011;32497;48.936;9.270;2022-08-26T13:11:15;5.57;;;1.70;;
46751;SDS011;32497;48.936;9.270;2022-08-26T13:16:19;3.58;;;2.20;;
46751;SDS011;32497;48.936;9.270;2022-08-26T13:21:23;3.63;;;1.75;;
46751;SDS011;32497;48.936;9.270;2022-08-26T13:26:26;3.97;;;1.85;;
46751;SDS011;32497;48.936;9.270;2022-08-26T13:31:28;4.43;;;2.13;;
46751;SDS011;32497;48.936;9.270;2022-08-26T13:36:32;10.30;;;2.10;;
46751;SDS011;32497;48.936;9.270;2022-08-26T13:41:33;5.70;;;1.88;;
46751;SDS011;32497;48.936;9.270;2022-08-26T13:46:34;4.47;;;3.05;;
46751;SDS011;32497;48.936;9.270;2022-08-26T13:51:37;3.83;;;2.67;;
46751;SDS011;32497;48.936;9.270;2022-08-26T13:56:38;4.53;;;2.72;;
46751;SDS011;32497;48.936;9.270;2022-08-26T14:01:40;3.28;;;2.60;;
46751;SDS011;32497;48.936;9.270;2022-08-26T14:06:42;5.25;;;2.70;;
46751;SDS011;32497;48.936;9.270;2022-08-26T14:11:43;3.90;;;2.70;;
46751;SDS011;32497;48.936;9.270;2022-08-26T14:16:44;3.30;;;2.42;;
46751;SDS011;32497;48.936;9.270;2022-08-26T14:21:46;3.92;;;2.72;;
46751;SDS011;32497;48.936;9.270;2022-08-26T14:26:47;5.82;;;2.58;;
46751;SDS011;32497;48.936;9.270;2022-08-26T14:31:48;3.67;;;2.60;;
46751;SDS011;32497;48.936;9.270;2022-08-26T14:36:51;3.53;;;2.10;;
46751;SDS011;32497;48.936;9.270;2022-08-26T14:41:53;3.97;;;2.03;;
46751;SDS011;32497;48.936;9.270;2022-08-26T14:46:57;4.28;;;2.20;;
46751;SDS011;32497;48.936;9.270;2022-08-26T14:52:06;5.82;;;2.47;;
46751;SDS011;32497;48.936;9.270;2022-08-26T14:57:07;8.82;;;2.90;;
46751;SDS011;32497;48.936;9.270;2022-08-26T15:02:11;3.10;;;1.80;;
46751;SDS011;32497;48.936;9.270;2022-08-26T15:07:14;8.65;;;2.42;;
46751;SDS011;32497;48.936;9.270;2022-08-26T15:12:15;4.65;;;2.35;;
46751;SDS011;32497;48.936;9.270;2022-08-26T15:17:16;5.00;;;2.00;;
46751;SDS011;32497;48.936;9.270;2022-08-26T15:22:19;3.35;;;1.67;;
46751;SDS011;32497;48.936;9.270;2022-08-26T15:27:20;5.70;;;2.70;;
46751;SDS011;32497;48.936;9.270;2022-08-26T15:32:21;2.67;;;1.75;;
46751;SDS011;32497;48.936;9.270;2022-08-26T15:37:28;2.78;;;1.60;;
46751;SDS011;32497;48.936;9.270;2022-08-26T15:42:47;2.22;;;1.70;;
46751;SDS011;32497;48.936;9.270;2022-08-26T15:47:48;3.33;;;2.03;;
46751;SDS011;32497;48.936;9.270;2022-08-26T15:52:51;3.97;;;2.55;;
46751;SDS011;32497;48.936;9.270;2022-08-26T15:57:52;3.42;;;1.60;;
46751;SDS011;32497;48.936;9.270;2022-08-26T16:02:53;2.95;;;1.50;;
46751;SDS011;32497;48.936;9.270;2022-08-26T16:07:55;3.47;;;2.05;;
46751;SDS011;32497;48.936;9.270;2022-08-26T16:12:56;3.28;;;2.00;;
46751;SDS011;32497;48.936;9.270;2022-08-26T16:17:58;3.90;;;1.70;;
46751;SDS011;32497;48.936;9.270;2022-08-26T16:23:00;2.90;;;1.60;;
46751;SDS011;32497;48.936;9.270;2022-08-26T16:28:02;2.53;;;1.58;;
46751;SDS011;32497;48.936;9.270;2022-08-26T16:33:03;2.90;;;1.60;;
46751;SDS011;32497;48.936;9.270;2022-08-26T16:38:05;2.03;;;1.45;;
46751;SDS011;32497;48.936;9.270;2022-08-26T16:43:06;5.05;;;1.20;;
46751;SDS011;32497;48.936;9.270;2022-08-26T16:48:07;1.98;;;1.30;;
46751;SDS011;32497;48.936;9.270;2022-08-26T16:53:10;3.65;;;1.40;;
46751;SDS011;32497;48.936;9.270;2022-08-26T16:58:11;2.05;;;1.20;;
46751;SDS011;32497;48.936;9.270;2022-08-26T17:03:12;2.38;;;1.23;;
46751;SDS011;32497;48.936;9.270;2022-08-26T17:08:14;3.58;;;1.33;;
46751;SDS011;32497;48.936;9.270;2022-08-26T17:13:15;4.20;;;1.00;;
46751;SDS011;32497;48.936;9.270;2022-08-26T17:18:16;1.02;;;0.60;;
46751;SDS011;32497;48.936;9.270;2022-08-26T17:23:19;1.10;;;0.60;;
46751;SDS011;32497;48.936;9.270;2022-08-26T17:28:20;1.35;;;0.75;;
46751;SDS011;32497;48.936;9.270;2022-08-26T17:33:21;1.85;;;0.73;;
46751;SDS011;32497;48.936;9.270;2022-08-26T17:38:23;0.98;;;0.88;;
46751;SDS011;32497;48.936;9.270;2022-08-26T17:43:25;2.13;;;0.90;;
46751;SDS011;32497;48.936;9.270;2022-08-26T17:48:26;2.13;;;1.13;;
46751;SDS011;32497;48.936;9.270;2022-08-26T17:53:29;3.00;;;1.35;;
46751;SDS011;32497;48.936;9.270;2022-08-26T17:58:30;4.03;;;1.38;;
46751;SDS011;32497;48.936;9.270;2022-08-26T18:03:31;3.10;;;1.42;;
46751;SDS011;32497;48.936;9.270;2022-08-26T18:08:33;1.73;;;1.30;;
46751;SDS011;32497;48.936;9.270;2022-08-26T18:13:34;4.32;;;1.65;;
46751;SDS011;32497;48.936;9.270;2022-08-26T18:18:36;3.55;;;1.77;;
46751;SDS011;32497;48.936;9.270;2022-08-26T18:23:39;3.28;;;2.03;;
46751;SDS011;32497;48.936;9.270;2022-08-26T18:28:40;2.75;;;1.80;;
46751;SDS011;32497;48.936;9.270;2022-08-26T18:33:41;4.75;;;2.03;;
46751;SDS011;32497;48.936;9.270;2022-08-26T18:38:44;6.40;;;2.83;;
46751;SDS011;32497;48.936;9.270;2022-08-26T18:43:46;4.05;;;2.50;;
46751;SDS011;32497;48.936;9.270;2022-08-26T18:48:47;5.72;;;2.45;;
46751;SDS011;32497;48.936;9.270;2022-08-26T18:53:52;3.10;;;1.90;;
46751;SDS011;32497;48.936;9.270;2022-08-26T18:58:53;5.28;;;2.45;;
46751;SDS011;32497;48.936;9.270;2022-08-26T19:03:54;2.70;;;1.63;;
46751;SDS011;32497;48.936;9.270;2022-08-26T19:08:57;5.55;;;2.28;;
46751;SDS011;32497;48.936;9.270;2022-08-26T19:13:58;3.17;;;1.85;;
46751;SDS011;32497;48.936;9.270;2022-08-26T19:18:59;2.80;;;1.63;;
46751;SDS011;32497;48.936;9.270;2022-08-26T19:24:03;3.13;;;1.88;;
46751;SDS011;32497;48.936;9.270;2022-08-26T19:29:05;4.20;;;2.10;;
46751;SDS011;32497;48.936;9.270;2022-08-26T19:34:07;3.38;;;2.05;;
46751;SDS011;32497;48.936;9.270;2022-08-26T19:39:09;3.50;;;1.80;;
46751;SDS011;32497;48.936;9.270;2022-08-26T19:44:12;4.38;;;2.90;;
46751;SDS011;32497;48.936;9.270;2022-08-26T19:49:14;3.42;;;1.80;;
46751;SDS011;32497;48.936;9.270;2022-08-26T19:54:16;4.32;;;2.05;;
46751;SDS011;32497;48.936;9.270;2022-08-26T19:59:17;2.42;;;1.70;;
46751;SDS011;32497;48.936;9.270;2022-08-26T20:04:18;3.50;;;2.08;;
46751;SDS011;32497;48.936;9.270;2022-08-26T20:09:20;3.47;;;2.00;;
46751;SDS011;32497;48.936;9.270;2022-08-26T20:14:21;4.25;;;1.80;;
46751;SDS011;32497;48.936;9.270;2022-08-26T20:19:22;3.13;;;1.83;;
46751;SDS011;32497;48.936;9.270;2022-08-26T20:24:25;4.63;;;2.40;;
46751;SDS011;32497;48.936;9.270;2022-08-26T20:29:26;3.03;;;1.70;;
46751;SDS011;32497;48.936;9.270;2022-08-26T20:34:27;5.30;;;2.40;;
46751;SDS011;32497;48.936;9.270;2022-08-26T20:39:29;4.35;;;2.17;;
46751;SDS011;32497;48.936;9.270;2022-08-26T20:44:30;5.05;;;2.78;;
46751;SDS011;32497;48.936;9.270;2022-08-26T20:49:31;6.38;;;2.53;;
46751;SDS011;32497;48.936;9.270;2022-08-26T20:54:34;3.90;;;2.28;;
46751;SDS011;32497;48.936;9.270;2022-08-26T20:59:35;4.68;;;2.42;;
46751;SDS011;32497;48.936;9.270;2022-08-26T21:04:36;4.90;;;2.20;;
46751;SDS011;32497;48.936;9.270;2022-08-26T21:09:38;7.10;;;2.45;;
46751;SDS011;32497;48.936;9.270;2022-08-26T21:14:39;4.03;;;2.47;;
46751;SDS011;32497;48.936;9.270;2022-08-26T21:19:40;3.58;;;2.08;;
46751;SDS011;32497;48.936;9.270;2022-08-26T21:24:42;4.13;;;2.30;;
46751;SDS011;32497;48.936;9.270;2022-08-26T21:29:43;6.57;;;2.72;;
46751;SDS011;32497;48.936;9.270;2022-08-26T21:34:44;4.72;;;2.60;;
46751;SDS011;32497;48.936;9.270;2022-08-26T21:39:47;5.35;;;2.50;;
46751;SDS011;32497;48.936;9.270;2022-08-26T21:44:51;5.07;;;2.67;;
46751;SDS011;32497;48.936;9.270;2022-08-26T21:49:53;3.33;;;2.35;;
46751;SDS011;32497;48.936;9.270;2022-08-26T21:54:59;4.95;;;2.70;;
46751;SDS011;32497;48.936;9.270;2022-08-26T22:00:00;4.28;;;2.83;;
46751;SDS011;32497;48.936;9.270;2022-08-26T22:05:04;4.82;;;2.65;;
46751;SDS011;32497;48.936;9.270;2022-08-26T22:10:07;4.72;;;2.60;;
46751;SDS011;32497;48.936;9.270;2022-08-26T22:15:08;3.35;;;2.33;;
46751;SDS011;32497;48.936;9.270;2022-08-26T22:20:10;6.65;;;2.75;;
46751;SDS011;32497;48.936;9.270;2022-08-26T22:25:12;4.97;;;2.50;;
46751;SDS011;32497;48.936;9.270;2022-08-26T22:30:13;5.28;;;2.80;;
46751;SDS011;32497;48.936;9.270;2022-08-26T22:35:14;5.22;;;3.17;;
46751;SDS011;32497;48.936;9.270;2022-08-26T22:40:17;6.15;;;3.63;;
46751;SDS011;32497;48.936;9.270;2022-08-26T22:45:18;6.40;;;3.10;;
46751;SDS011;32497;48.936;9.270;2022-08-26T22:50:19;9.20;;;3.50;;
46751;SDS011;32497;48.936;9.270;2022-08-26T22:55:22;5.70;;;3.25;;
46751;SDS011;32497;48.936;9.270;2022-08-26T23:00:23;5.75;;;3.33;;
46751;SDS011;32497;48.936;9.270;2022-08-26T23:05:24;5.60;;;3.17;;
46751;SDS011;32497;48.936;9.270;2022-08-26T23:10:27;6.82;;;3.55;;
46751;SDS011;32497;48.936;9.270;2022-08-26T23:15:28;6.22;;;3.17;;
46751;SDS011;32497;48.936;9.270;2022-08-26T23:20:30;4.22;;;2.97;;
46751;SDS011;32497;48.936;9.270;2022-08-26T23:25:33;6.45;;;3.83;;
46751;SDS011;32497;48.936;9.270;2022-08-26T23:30:34;5.68;;;3.45;;
46751;SDS011;32497;48.936;9.270;2022-08-26T23:35:35;6.88;;;3.53;;
46751;SDS011;32497;48.936;9.270;2022-08-26T23:40:37;5.82;;;3.78;;
46751;SDS011;32497;48.936;9.270;2022-08-26T23:45:39;12.57;;;5.07;;
46751;SDS011;32497;48.936;9.270;2022-08-26T23:50:40;7.07;;;3.90;;
46751;SDS011;32497;48.936;9.270;2022-08-26T23:55:42;8.98;;;4.03;;
